createdAt,value
2017-11-12T00:00:14.858Z,996.6
2017-11-12T00:01:17.276Z,996.6
2017-11-12T00:02:19.691Z,996.6
2017-11-12T00:03:22.128Z,996.6
2017-11-12T00:04:24.591Z,996.6
2017-11-12T00:05:26.967Z,996.6
2017-11-12T00:06:29.379Z,996.6
2017-11-12T00:07:31.805Z,996.7
2017-11-12T00:08:34.229Z,996.7
2017-11-12T00:09:36.652Z,996.7
2017-11-12T00:10:39.069Z,996.6
2017-11-12T00:11:41.486Z,996.6
2017-11-12T00:12:43.932Z,996.7
2017-11-12T00:13:46.399Z,996.7
2017-11-12T00:14:48.822Z,996.6
2017-11-12T00:15:51.260Z,996.7
2017-11-12T00:16:54.555Z,996.6
2017-11-12T00:17:57.434Z,996.7
2017-11-12T00:18:59.873Z,996.6
2017-11-12T00:20:02.300Z,996.6
2017-11-12T00:21:04.726Z,996.6
2017-11-12T00:22:08.302Z,996.6
2017-11-12T00:23:12.560Z,996.5
2017-11-12T00:24:15.014Z,996.5
2017-11-12T00:25:18.506Z,996.5
2017-11-12T00:26:22.495Z,996.6
2017-11-12T00:27:24.909Z,996.5
2017-11-12T00:28:27.340Z,996.6
2017-11-12T00:29:29.764Z,996.6
2017-11-12T00:30:33.406Z,996.6
2017-11-12T00:31:35.842Z,996.6
2017-11-12T00:32:38.295Z,996.6
2017-11-12T00:33:40.711Z,996.5
2017-11-12T00:34:43.158Z,996.6
2017-11-12T00:35:45.581Z,996.6
2017-11-12T00:36:48.019Z,996.5
2017-11-12T00:37:50.465Z,996.6
2017-11-12T00:38:52.928Z,996.6
2017-11-12T00:39:55.404Z,996.6
2017-11-12T00:40:57.853Z,996.7
2017-11-12T00:42:00.273Z,996.6
2017-11-12T00:43:03.057Z,996.6
2017-11-12T00:44:05.501Z,996.6
2017-11-12T00:45:07.939Z,996.6
2017-11-12T00:46:10.396Z,996.6
2017-11-12T00:47:12.820Z,996.5
2017-11-12T00:48:15.289Z,996.5
2017-11-12T00:49:17.798Z,996.5
2017-11-12T00:50:21.054Z,996.5
2017-11-12T00:51:23.528Z,996.6
2017-11-12T00:52:26.225Z,996.6
2017-11-12T00:53:28.666Z,996.6
2017-11-12T00:54:31.111Z,996.5
2017-11-12T00:55:34.647Z,996.6
2017-11-12T00:56:37.758Z,996.5
2017-11-12T00:57:40.358Z,996.6
2017-11-12T00:58:42.913Z,996.6
2017-11-12T00:59:45.431Z,996.5
2017-11-12T01:00:48.373Z,996.5
2017-11-12T01:01:50.860Z,996.5
2017-11-12T01:02:53.635Z,996.5
2017-11-12T01:03:57.086Z,996.6
2017-11-12T01:04:59.603Z,996.5
2017-11-12T01:06:02.370Z,996.5
2017-11-12T01:07:05.179Z,996.5
2017-11-12T01:08:07.630Z,996.5
2017-11-12T01:09:10.076Z,996.5
2017-11-12T01:10:12.515Z,996.5
2017-11-12T01:11:14.956Z,996.5
2017-11-12T01:12:17.536Z,996.5
2017-11-12T01:13:19.962Z,996.5
2017-11-12T01:14:22.755Z,996.5
2017-11-12T01:15:25.207Z,996.5
2017-11-12T01:16:27.654Z,996.5
2017-11-12T01:17:30.078Z,996.5
2017-11-12T01:18:32.514Z,996.5
2017-11-12T01:19:34.951Z,996.5
2017-11-12T01:20:37.380Z,996.5
2017-11-12T01:21:39.799Z,996.5
2017-11-12T01:22:42.209Z,996.5
2017-11-12T01:23:44.643Z,996.5
2017-11-12T01:24:47.469Z,996.5
2017-11-12T01:25:50.259Z,996.4
2017-11-12T01:26:52.671Z,996.4
2017-11-12T01:27:55.085Z,996.4
2017-11-12T01:28:57.519Z,996.4
2017-11-12T01:29:59.960Z,996.4
2017-11-12T01:31:02.377Z,996.4
2017-11-12T01:32:04.837Z,996.4
2017-11-12T01:33:07.251Z,996.4
2017-11-12T01:34:09.680Z,996.4
2017-11-12T01:35:12.092Z,996.3
2017-11-12T01:36:14.512Z,996.3
2017-11-12T01:37:17.295Z,996.3
2017-11-12T01:38:19.710Z,996.4
2017-11-12T01:39:22.132Z,996.3
2017-11-12T01:40:24.583Z,996.3
2017-11-12T01:41:27.000Z,996.4
2017-11-12T01:42:29.786Z,996.3
2017-11-12T01:43:32.217Z,996.4
2017-11-12T01:44:34.630Z,996.4
2017-11-12T01:45:37.418Z,996.4
2017-11-12T01:46:39.867Z,996.4
2017-11-12T01:47:42.289Z,996.4
2017-11-12T01:48:44.707Z,996.3
2017-11-12T01:49:47.499Z,996.4
2017-11-12T01:50:49.910Z,996.4
2017-11-12T01:51:52.359Z,996.4
2017-11-12T01:52:55.171Z,996.3
2017-11-12T01:53:57.946Z,996.3
2017-11-12T01:55:00.385Z,996.4
2017-11-12T01:56:02.800Z,996.3
2017-11-12T01:57:05.243Z,996.4
2017-11-12T01:58:07.695Z,996.3
2017-11-12T01:59:10.120Z,996.3
2017-11-12T02:00:12.552Z,996.4
2017-11-12T02:01:14.977Z,996.3
2017-11-12T02:02:17.391Z,996.4
2017-11-12T02:03:19.837Z,996.4
2017-11-12T02:04:22.250Z,996.4
2017-11-12T02:05:25.077Z,996.4
2017-11-12T02:06:27.495Z,996.3
2017-11-12T02:07:29.914Z,996.4
2017-11-12T02:08:32.339Z,996.3
2017-11-12T02:09:34.778Z,996.3
2017-11-12T02:10:37.177Z,996.4
2017-11-12T02:11:39.604Z,996.3
2017-11-12T02:12:42.024Z,996.3
2017-11-12T02:13:44.458Z,996.4
2017-11-12T02:14:46.876Z,996.4
2017-11-12T02:15:49.307Z,996.4
2017-11-12T02:16:52.100Z,996.3
2017-11-12T02:17:54.519Z,996.4
2017-11-12T02:18:56.937Z,996.4
2017-11-12T02:19:59.353Z,996.3
2017-11-12T02:21:01.785Z,996.3
2017-11-12T02:22:04.203Z,996.3
2017-11-12T02:23:06.631Z,996.3
2017-11-12T02:24:09.039Z,996.3
2017-11-12T02:25:11.453Z,996.3
2017-11-12T02:26:13.903Z,996.3
2017-11-12T02:27:16.684Z,996.3
2017-11-12T02:28:19.105Z,996.3
2017-11-12T02:29:21.517Z,996.3
2017-11-12T02:30:23.930Z,996.3
2017-11-12T02:31:26.361Z,996.3
2017-11-12T02:32:29.138Z,996.3
2017-11-12T02:33:31.556Z,996.2
2017-11-12T02:34:34.338Z,996.2
2017-11-12T02:35:36.763Z,996.3
2017-11-12T02:36:39.548Z,996.3
2017-11-12T02:37:42.366Z,996.3
2017-11-12T02:38:45.146Z,996.3
2017-11-12T02:39:47.554Z,996.3
2017-11-12T02:40:50.342Z,996.3
2017-11-12T02:41:52.757Z,996.3
2017-11-12T02:42:55.179Z,996.3
2017-11-12T02:43:57.594Z,996.3
2017-11-12T02:45:00.008Z,996.3
2017-11-12T02:46:02.788Z,996.2
2017-11-12T02:47:05.209Z,996.3
2017-11-12T02:48:07.637Z,996.3
2017-11-12T02:49:10.068Z,996.3
2017-11-12T02:50:12.491Z,996.3
2017-11-12T02:51:15.290Z,996.2
2017-11-12T02:52:18.059Z,996.2
2017-11-12T02:53:20.847Z,996.3
2017-11-12T02:54:23.315Z,996.2
2017-11-12T02:55:26.101Z,996.2
2017-11-12T02:56:28.522Z,996.2
2017-11-12T02:57:31.350Z,996.3
2017-11-12T02:58:33.741Z,996.2
2017-11-12T02:59:36.167Z,996.2
2017-11-12T03:00:38.595Z,996.2
2017-11-12T03:01:41.006Z,996.2
2017-11-12T03:02:43.799Z,996.2
2017-11-12T03:03:46.241Z,996.2
2017-11-12T03:04:48.666Z,996.2
2017-11-12T03:05:51.091Z,996.1
2017-11-12T03:06:53.513Z,996.1
2017-11-12T03:07:55.939Z,996.1
2017-11-12T03:08:58.359Z,996.2
2017-11-12T03:10:00.773Z,996.1
2017-11-12T03:11:03.195Z,996.1
2017-11-12T03:12:05.614Z,996.1
2017-11-12T03:13:08.039Z,996
2017-11-12T03:14:10.440Z,996.1
2017-11-12T03:15:12.859Z,996
2017-11-12T03:16:15.286Z,996.1
2017-11-12T03:17:17.701Z,996
2017-11-12T03:18:20.121Z,996
2017-11-12T03:19:22.537Z,996
2017-11-12T03:20:25.300Z,996
2017-11-12T03:21:27.720Z,996
2017-11-12T03:22:30.148Z,996
2017-11-12T03:23:32.910Z,996
2017-11-12T03:24:35.348Z,996
2017-11-12T03:25:37.782Z,996
2017-11-12T03:26:40.208Z,996
2017-11-12T03:27:42.628Z,996
2017-11-12T03:28:45.037Z,996
2017-11-12T03:29:47.470Z,996
2017-11-12T03:30:49.902Z,996
2017-11-12T03:31:52.323Z,996
2017-11-12T03:32:54.741Z,996
2017-11-12T03:33:57.167Z,996
2017-11-12T03:34:59.586Z,995.9
2017-11-12T03:36:02.013Z,995.9
2017-11-12T03:37:04.430Z,995.9
2017-11-12T03:38:06.834Z,995.8
2017-11-12T03:39:09.608Z,995.8
2017-11-12T03:40:12.034Z,995.8
2017-11-12T03:41:14.448Z,995.8
2017-11-12T03:42:16.865Z,995.8
2017-11-12T03:43:19.281Z,995.8
2017-11-12T03:44:21.701Z,995.8
2017-11-12T03:45:24.120Z,995.8
2017-11-12T03:46:26.530Z,995.8
2017-11-12T03:47:28.964Z,995.8
2017-11-12T03:48:31.370Z,995.8
2017-11-12T03:49:33.793Z,995.8
2017-11-12T03:50:36.204Z,995.8
2017-11-12T03:51:38.624Z,995.9
2017-11-12T03:52:41.051Z,995.9
2017-11-12T03:53:43.481Z,995.8
2017-11-12T03:54:45.898Z,995.9
2017-11-12T03:55:48.685Z,995.9
2017-11-12T03:56:51.102Z,995.9
2017-11-12T03:57:53.533Z,995.8
2017-11-12T03:58:56.304Z,995.8
2017-11-12T03:59:58.725Z,995.8
2017-11-12T04:01:01.496Z,995.8
2017-11-12T04:02:03.927Z,995.9
2017-11-12T04:03:06.334Z,995.9
2017-11-12T04:04:08.761Z,995.9
2017-11-12T04:05:11.174Z,995.9
2017-11-12T04:06:13.599Z,995.8
2017-11-12T04:07:16.383Z,995.9
2017-11-12T04:08:18.801Z,995.8
2017-11-12T04:09:21.212Z,995.8
2017-11-12T04:10:23.644Z,995.9
2017-11-12T04:11:26.059Z,995.8
2017-11-12T04:12:28.855Z,995.8
2017-11-12T04:13:31.278Z,995.8
2017-11-12T04:14:33.726Z,995.8
2017-11-12T04:15:36.499Z,995.7
2017-11-12T04:16:38.916Z,995.8
2017-11-12T04:17:41.320Z,995.8
2017-11-12T04:18:43.753Z,995.7
2017-11-12T04:19:46.168Z,995.7
2017-11-12T04:20:48.580Z,995.7
2017-11-12T04:21:51.004Z,995.7
2017-11-12T04:22:53.426Z,995.7
2017-11-12T04:23:55.836Z,995.6
2017-11-12T04:24:58.253Z,995.7
2017-11-12T04:26:00.672Z,995.6
2017-11-12T04:27:03.444Z,995.7
2017-11-12T04:28:05.869Z,995.6
2017-11-12T04:29:08.301Z,995.7
2017-11-12T04:30:10.709Z,995.7
2017-11-12T04:31:13.494Z,995.7
2017-11-12T04:32:15.913Z,995.7
2017-11-12T04:33:18.334Z,995.7
2017-11-12T04:34:20.756Z,995.6
2017-11-12T04:35:23.528Z,995.7
2017-11-12T04:36:26.302Z,995.6
2017-11-12T04:37:28.732Z,995.6
2017-11-12T04:38:31.160Z,995.6
2017-11-12T04:39:33.584Z,995.7
2017-11-12T04:40:36.003Z,995.6
2017-11-12T04:41:38.421Z,995.6
2017-11-12T04:42:40.833Z,995.6
2017-11-12T04:43:43.618Z,995.6
2017-11-12T04:44:46.425Z,995.6
2017-11-12T04:45:48.843Z,995.5
2017-11-12T04:46:51.254Z,995.6
2017-11-12T04:47:53.675Z,995.6
2017-11-12T04:48:56.099Z,995.6
2017-11-12T04:49:58.516Z,995.6
2017-11-12T04:51:00.936Z,995.6
2017-11-12T04:52:03.342Z,995.6
2017-11-12T04:53:06.126Z,995.6
2017-11-12T04:54:08.560Z,995.6
2017-11-12T04:55:10.983Z,995.6
2017-11-12T04:56:13.399Z,995.6
2017-11-12T04:57:15.812Z,995.6
2017-11-12T04:58:18.241Z,995.7
2017-11-12T04:59:20.658Z,995.6
2017-11-12T05:00:23.083Z,995.6
2017-11-12T05:01:25.485Z,995.5
2017-11-12T05:02:27.898Z,995.5
2017-11-12T05:03:30.334Z,995.5
2017-11-12T05:04:32.786Z,995.5
2017-11-12T05:05:35.561Z,995.4
2017-11-12T05:06:37.975Z,995.5
2017-11-12T05:07:40.400Z,995.4
2017-11-12T05:08:42.822Z,995.5
2017-11-12T05:09:45.250Z,995.5
2017-11-12T05:10:48.045Z,995.5
2017-11-12T05:11:50.468Z,995.5
2017-11-12T05:12:52.895Z,995.4
2017-11-12T05:13:55.324Z,995.5
2017-11-12T05:14:58.090Z,995.4
2017-11-12T05:16:00.512Z,995.4
2017-11-12T05:17:02.921Z,995.4
2017-11-12T05:18:05.357Z,995.4
2017-11-12T05:19:07.782Z,995.4
2017-11-12T05:20:10.190Z,995.4
2017-11-12T05:21:12.617Z,995.4
2017-11-12T05:22:15.029Z,995.3
2017-11-12T05:23:17.446Z,995.3
2017-11-12T05:24:19.861Z,995.3
2017-11-12T05:25:22.275Z,995.3
2017-11-12T05:26:24.691Z,995.3
2017-11-12T05:27:27.125Z,995.3
2017-11-12T05:28:29.531Z,995.3
2017-11-12T05:29:31.941Z,995.3
2017-11-12T05:30:34.371Z,995.3
2017-11-12T05:31:36.782Z,995.4
2017-11-12T05:32:39.205Z,995.3
2017-11-12T05:33:41.631Z,995.4
2017-11-12T05:34:44.043Z,995.4
2017-11-12T05:35:46.472Z,995.4
2017-11-12T05:36:48.904Z,995.3
2017-11-12T05:37:51.315Z,995.4
2017-11-12T05:38:53.725Z,995.3
2017-11-12T05:39:56.144Z,995.4
2017-11-12T05:40:58.563Z,995.3
2017-11-12T05:42:00.978Z,995.3
2017-11-12T05:43:03.406Z,995.3
2017-11-12T05:44:05.828Z,995.3
2017-11-12T05:45:08.264Z,995.2
2017-11-12T05:46:10.691Z,995.3
2017-11-12T05:47:13.103Z,995.3
2017-11-12T05:48:15.522Z,995.3
2017-11-12T05:49:17.944Z,995.2
2017-11-12T05:50:20.358Z,995.2
2017-11-12T05:51:23.136Z,995.2
2017-11-12T05:52:25.540Z,995.2
2017-11-12T05:53:27.959Z,995.2
2017-11-12T05:54:30.369Z,995.2
2017-11-12T05:55:33.140Z,995.2
2017-11-12T05:56:35.559Z,995.2
2017-11-12T05:57:37.984Z,995.1
2017-11-12T05:58:40.401Z,995.1
2017-11-12T05:59:42.825Z,995.1
2017-11-12T06:00:45.228Z,995.1
2017-11-12T06:01:47.676Z,995.1
2017-11-12T06:02:50.076Z,995.1
2017-11-12T06:03:52.499Z,995.1
2017-11-12T06:04:54.935Z,995.1
2017-11-12T06:05:57.687Z,995.1
2017-11-12T06:07:00.113Z,995.1
2017-11-12T06:08:02.890Z,995
2017-11-12T06:09:05.295Z,995
2017-11-12T06:10:07.714Z,995.1
2017-11-12T06:11:10.124Z,995
2017-11-12T06:12:12.548Z,995.1
2017-11-12T06:13:14.968Z,995.1
2017-11-12T06:14:17.400Z,995.1
2017-11-12T06:15:20.156Z,995.1
2017-11-12T06:16:22.585Z,995.1
2017-11-12T06:17:25.758Z,995.1
2017-11-12T06:18:28.170Z,995.1
2017-11-12T06:19:30.588Z,995
2017-11-12T06:20:32.998Z,995
2017-11-12T06:21:35.410Z,995.1
2017-11-12T06:22:37.842Z,995.1
2017-11-12T06:23:40.266Z,995
2017-11-12T06:24:42.678Z,995
2017-11-12T06:25:45.110Z,995
2017-11-12T06:26:47.524Z,995
2017-11-12T06:27:49.941Z,995
2017-11-12T06:28:52.720Z,995
2017-11-12T06:29:55.137Z,995
2017-11-12T06:30:57.564Z,994.9
2017-11-12T06:32:00.339Z,994.9
2017-11-12T06:33:02.750Z,994.9
2017-11-12T06:34:05.185Z,994.9
2017-11-12T06:35:07.602Z,994.9
2017-11-12T06:36:10.010Z,995
2017-11-12T06:37:12.429Z,995
2017-11-12T06:38:14.849Z,995
2017-11-12T06:39:17.263Z,995
2017-11-12T06:40:19.712Z,995
2017-11-12T06:41:22.160Z,994.9
2017-11-12T06:42:24.577Z,995
2017-11-12T06:43:26.995Z,995
2017-11-12T06:44:29.424Z,995
2017-11-12T06:45:31.852Z,995
2017-11-12T06:46:34.266Z,994.9
2017-11-12T06:47:36.679Z,994.9
2017-11-12T06:48:39.100Z,994.9
2017-11-12T06:49:41.509Z,994.9
2017-11-12T06:50:43.937Z,994.9
2017-11-12T06:51:46.355Z,994.9
2017-11-12T06:52:48.773Z,994.9
2017-11-12T06:53:51.198Z,994.9
2017-11-12T06:54:53.617Z,994.9
2017-11-12T06:55:56.042Z,994.9
2017-11-12T06:56:58.471Z,994.9
2017-11-12T06:58:00.889Z,994.8
2017-11-12T06:59:03.306Z,994.8
2017-11-12T07:00:06.097Z,994.8
2017-11-12T07:01:08.503Z,994.8
2017-11-12T07:02:10.924Z,994.8
2017-11-12T07:03:13.342Z,994.8
2017-11-12T07:04:15.759Z,994.8
2017-11-12T07:05:18.177Z,994.8
2017-11-12T07:06:20.962Z,994.8
2017-11-12T07:07:23.366Z,994.8
2017-11-12T07:08:25.818Z,994.8
2017-11-12T07:09:28.207Z,994.9
2017-11-12T07:10:30.624Z,994.9
2017-11-12T07:11:33.430Z,994.9
2017-11-12T07:12:35.844Z,994.8
2017-11-12T07:13:38.276Z,994.9
2017-11-12T07:14:40.677Z,994.8
2017-11-12T07:15:43.111Z,994.8
2017-11-12T07:16:45.877Z,994.8
2017-11-12T07:17:48.301Z,994.8
2017-11-12T07:18:50.719Z,994.9
2017-11-12T07:19:53.146Z,994.8
2017-11-12T07:20:55.562Z,994.8
2017-11-12T07:21:57.991Z,994.8
2017-11-12T07:23:00.411Z,994.8
2017-11-12T07:24:02.837Z,994.8
2017-11-12T07:25:05.265Z,994.8
2017-11-12T07:26:07.678Z,994.8
2017-11-12T07:27:10.102Z,994.8
2017-11-12T07:28:12.876Z,994.8
2017-11-12T07:29:15.289Z,994.8
2017-11-12T07:30:17.718Z,994.8
2017-11-12T07:31:20.492Z,994.8
2017-11-12T07:32:22.914Z,994.9
2017-11-12T07:33:25.364Z,994.8
2017-11-12T07:34:28.136Z,994.8
2017-11-12T07:35:30.561Z,994.9
2017-11-12T07:36:32.981Z,994.9
2017-11-12T07:37:35.402Z,994.9
2017-11-12T07:38:37.810Z,994.9
2017-11-12T07:39:40.232Z,994.9
2017-11-12T07:40:42.668Z,994.9
2017-11-12T07:41:45.441Z,995
2017-11-12T07:42:47.869Z,995
2017-11-12T07:43:50.645Z,994.9
2017-11-12T07:44:53.060Z,994.9
2017-11-12T07:45:55.496Z,994.9
2017-11-12T07:46:57.918Z,994.9
2017-11-12T07:48:00.335Z,994.9
2017-11-12T07:49:02.760Z,994.8
2017-11-12T07:50:05.192Z,994.8
2017-11-12T07:51:07.614Z,994.8
2017-11-12T07:52:10.029Z,994.7
2017-11-12T07:53:12.446Z,994.7
2017-11-12T07:54:14.879Z,994.7
2017-11-12T07:55:17.663Z,994.7
2017-11-12T07:56:20.084Z,994.7
2017-11-12T07:57:22.857Z,994.7
2017-11-12T07:58:25.284Z,994.7
2017-11-12T07:59:28.080Z,994.7
2017-11-12T08:00:30.502Z,994.7
2017-11-12T08:01:32.922Z,994.7
2017-11-12T08:02:35.372Z,994.7
2017-11-12T08:03:37.782Z,994.7
2017-11-12T08:04:40.212Z,994.7
2017-11-12T08:05:42.641Z,994.7
2017-11-12T08:06:45.062Z,994.7
2017-11-12T08:07:47.478Z,994.7
2017-11-12T08:08:50.265Z,994.6
2017-11-12T08:09:52.687Z,994.6
2017-11-12T08:10:55.110Z,994.6
2017-11-12T08:11:57.535Z,994.7
2017-11-12T08:12:59.962Z,994.7
2017-11-12T08:14:02.368Z,994.6
2017-11-12T08:15:04.807Z,994.6
2017-11-12T08:16:07.223Z,994.6
2017-11-12T08:17:09.650Z,994.6
2017-11-12T08:18:12.072Z,994.6
2017-11-12T08:19:14.487Z,994.6
2017-11-12T08:20:16.907Z,994.7
2017-11-12T08:21:19.338Z,994.6
2017-11-12T08:22:22.113Z,994.6
2017-11-12T08:23:24.541Z,994.6
2017-11-12T08:24:26.959Z,994.6
2017-11-12T08:25:29.385Z,994.6
2017-11-12T08:26:31.800Z,994.6
2017-11-12T08:27:34.216Z,994.6
2017-11-12T08:28:37.341Z,994.6
2017-11-12T08:29:39.774Z,994.5
2017-11-12T08:30:42.181Z,994.5
2017-11-12T08:31:44.609Z,994.5
2017-11-12T08:32:47.028Z,994.5
2017-11-12T08:33:49.450Z,994.5
2017-11-12T08:34:51.874Z,994.4
2017-11-12T08:35:54.304Z,994.5
2017-11-12T08:36:56.801Z,994.4
2017-11-12T08:37:59.202Z,994.5
2017-11-12T08:39:01.620Z,994.5
2017-11-12T08:40:04.061Z,994.4
2017-11-12T08:41:06.487Z,994.4
2017-11-12T08:42:08.911Z,994.4
2017-11-12T08:43:11.334Z,994.5
2017-11-12T08:44:13.767Z,994.5
2017-11-12T08:45:16.192Z,994.4
2017-11-12T08:46:18.619Z,994.4
2017-11-12T08:47:21.417Z,994.4
2017-11-12T08:48:23.836Z,994.4
2017-11-12T08:49:26.257Z,994.4
2017-11-12T08:50:28.680Z,994.4
2017-11-12T08:51:31.107Z,994.4
2017-11-12T08:52:33.528Z,994.4
2017-11-12T08:53:35.944Z,994.4
2017-11-12T08:54:38.395Z,994.3
2017-11-12T08:55:40.807Z,994.4
2017-11-12T08:56:43.223Z,994.3
2017-11-12T08:57:45.659Z,994.4
2017-11-12T08:58:48.091Z,994.3
2017-11-12T08:59:50.518Z,994.3
2017-11-12T09:00:53.301Z,994.3
2017-11-12T09:01:56.218Z,994.3
2017-11-12T09:02:58.629Z,994.3
2017-11-12T09:04:01.171Z,994.3
2017-11-12T09:05:04.667Z,994.3
2017-11-12T09:06:07.086Z,994.3
2017-11-12T09:07:09.509Z,994.3
2017-11-12T09:08:11.925Z,994.3
2017-11-12T09:09:14.354Z,994.3
2017-11-12T09:10:16.790Z,994.3
2017-11-12T09:11:19.213Z,994.3
2017-11-12T09:12:21.638Z,994.3
2017-11-12T09:13:24.049Z,994.3
2017-11-12T09:14:26.478Z,994.2
2017-11-12T09:15:28.891Z,994.3
2017-11-12T09:16:31.319Z,994.2
2017-11-12T09:17:33.738Z,994.3
2017-11-12T09:18:36.158Z,994.2
2017-11-12T09:19:38.937Z,994.2
2017-11-12T09:20:41.372Z,994.2
2017-11-12T09:21:43.786Z,994.1
2017-11-12T09:22:46.211Z,994.2
2017-11-12T09:23:48.967Z,994.2
2017-11-12T09:24:51.405Z,994.1
2017-11-12T09:25:53.876Z,994.1
2017-11-12T09:26:56.685Z,994.1
2017-11-12T09:28:01.556Z,994.1
2017-11-12T09:29:04.356Z,994.1
2017-11-12T09:30:06.782Z,994.1
2017-11-12T09:31:09.588Z,994.1
2017-11-12T09:32:12.002Z,994.1
2017-11-12T09:33:14.420Z,994.1
2017-11-12T09:34:16.836Z,994.1
2017-11-12T09:35:19.274Z,994
2017-11-12T09:36:21.832Z,994.1
2017-11-12T09:37:24.700Z,994.1
2017-11-12T09:38:27.517Z,994.1
2017-11-12T09:39:29.948Z,994.1
2017-11-12T09:40:32.372Z,994
2017-11-12T09:41:35.160Z,994
2017-11-12T09:42:37.596Z,994
2017-11-12T09:43:40.401Z,994
2017-11-12T09:44:43.234Z,994
2017-11-12T09:45:45.669Z,994
2017-11-12T09:46:48.106Z,994
2017-11-12T09:47:50.887Z,994
2017-11-12T09:48:53.330Z,994
2017-11-12T09:49:55.767Z,993.9
2017-11-12T09:50:58.221Z,994
2017-11-12T09:52:00.645Z,994
2017-11-12T09:53:03.103Z,993.9
2017-11-12T09:54:05.512Z,993.9
2017-11-12T09:55:07.956Z,993.9
2017-11-12T09:56:10.391Z,993.8
2017-11-12T09:57:14.039Z,993.8
2017-11-12T09:58:22.024Z,993.8
2017-11-12T09:59:24.822Z,993.8
2017-11-12T10:00:27.269Z,993.7
2017-11-12T10:01:29.697Z,993.8
2017-11-12T10:02:32.217Z,993.8
2017-11-12T10:03:36.511Z,993.7
2017-11-12T10:04:51.245Z,993.7
2017-11-12T10:06:05.546Z,993.6
2017-11-12T10:07:08.172Z,993.7
2017-11-12T10:08:17.620Z,993.6
2017-11-12T10:09:32.842Z,993.7
2017-11-12T10:10:52.314Z,993.7
2017-11-12T10:12:12.479Z,993.7
2017-11-12T10:13:25.977Z,993.7
2017-11-12T10:14:38.893Z,993.6
2017-11-12T10:15:53.224Z,993.6
2017-11-12T10:16:55.600Z,993.6
2017-11-12T10:17:57.967Z,993.6
2017-11-12T10:19:00.345Z,993.5
2017-11-12T10:20:02.730Z,993.5
2017-11-12T10:21:05.097Z,993.5
2017-11-12T10:22:07.469Z,993.5
2017-11-12T10:23:09.839Z,993.5
2017-11-12T10:24:12.215Z,993.5
2017-11-12T10:25:14.594Z,993.4
2017-11-12T10:26:16.970Z,993.4
2017-11-12T10:27:19.334Z,993.3
2017-11-12T10:28:21.718Z,993.3
2017-11-12T10:29:24.092Z,993.3
2017-11-12T10:30:26.464Z,993.3
2017-11-12T10:31:28.843Z,993.2
2017-11-12T10:32:31.223Z,993.3
2017-11-12T10:33:33.594Z,993.2
2017-11-12T10:34:36.319Z,993.2
2017-11-12T10:35:38.708Z,993.2
2017-11-12T10:36:41.059Z,993.2
2017-11-12T10:37:43.429Z,993.1
2017-11-12T10:38:45.808Z,993.1
2017-11-12T10:39:48.189Z,993.1
2017-11-12T10:40:50.916Z,993.1
2017-11-12T10:41:53.288Z,993.1
2017-11-12T10:42:55.664Z,993.1
2017-11-12T10:43:58.043Z,993.1
2017-11-12T10:45:01.509Z,993
2017-11-12T10:46:09.294Z,993.1
2017-11-12T10:47:11.828Z,993.1
2017-11-12T10:48:14.835Z,993.1
2017-11-12T10:49:19.222Z,993
2017-11-12T10:50:21.832Z,993
2017-11-12T10:51:26.640Z,993
2017-11-12T10:52:31.096Z,993.1
2017-11-12T10:53:34.331Z,993
2017-11-12T10:54:37.316Z,993
2017-11-12T10:55:39.808Z,993
2017-11-12T10:56:43.333Z,993
2017-11-12T10:57:46.136Z,992.9
2017-11-12T10:58:49.137Z,993
2017-11-12T10:59:52.083Z,993
2017-11-12T11:00:56.111Z,992.9
2017-11-12T11:01:58.551Z,992.9
2017-11-12T11:03:01.386Z,992.9
2017-11-12T11:04:04.684Z,992.8
2017-11-12T11:05:07.729Z,992.8
2017-11-12T11:06:10.664Z,992.8
2017-11-12T11:07:14.126Z,992.8
2017-11-12T11:08:17.323Z,992.8
2017-11-12T11:09:20.279Z,992.8
2017-11-12T11:10:22.697Z,992.8
2017-11-12T11:11:25.144Z,992.8
2017-11-12T11:12:27.596Z,992.8
2017-11-12T11:13:30.064Z,992.8
2017-11-12T11:14:32.470Z,992.8
2017-11-12T11:15:35.063Z,992.8
2017-11-12T11:16:38.182Z,992.7
2017-11-12T11:17:40.617Z,992.7
2017-11-12T11:18:44.048Z,992.8
2017-11-12T11:19:46.918Z,992.7
2017-11-12T11:20:49.375Z,992.7
2017-11-12T11:21:51.935Z,992.7
2017-11-12T11:22:54.359Z,992.7
2017-11-12T11:23:56.811Z,992.6
2017-11-12T11:24:59.242Z,992.6
2017-11-12T11:26:01.642Z,992.6
2017-11-12T11:27:04.090Z,992.6
2017-11-12T11:28:07.386Z,992.6
2017-11-12T11:29:09.831Z,992.6
2017-11-12T11:30:12.738Z,992.6
2017-11-12T11:31:15.814Z,992.6
2017-11-12T11:32:18.283Z,992.6
2017-11-12T11:33:20.746Z,992.6
2017-11-12T11:34:23.622Z,992.5
2017-11-12T11:35:26.384Z,992.6
2017-11-12T11:36:28.883Z,992.5
2017-11-12T11:37:31.735Z,992.5
2017-11-12T11:38:35.150Z,992.5
2017-11-12T11:39:37.592Z,992.5
2017-11-12T11:40:40.040Z,992.5
2017-11-12T11:41:44.182Z,992.5
2017-11-12T11:42:47.047Z,992.4
2017-11-12T11:43:49.512Z,992.4
2017-11-12T11:44:52.028Z,992.4
2017-11-12T11:45:55.518Z,992.4
2017-11-12T11:46:58.042Z,992.4
2017-11-12T11:48:01.089Z,992.4
2017-11-12T11:49:03.535Z,992.4
2017-11-12T11:50:05.948Z,992.4
2017-11-12T11:51:08.785Z,992.3
2017-11-12T11:52:11.522Z,992.3
2017-11-12T11:53:14.006Z,992.3
2017-11-12T11:54:16.868Z,992.3
2017-11-12T11:55:20.286Z,992.3
2017-11-12T11:56:22.870Z,992.3
2017-11-12T11:57:25.785Z,992.3
2017-11-12T11:58:28.639Z,992.3
2017-11-12T11:59:31.467Z,992.3
2017-11-12T12:00:34.831Z,992.3
2017-11-12T12:01:38.580Z,992.3
2017-11-12T12:02:42.455Z,992.3
2017-11-12T12:03:45.508Z,992.2
2017-11-12T12:04:48.085Z,992.2
2017-11-12T12:05:50.571Z,992.2
2017-11-12T12:06:52.987Z,992.2
2017-11-12T12:07:55.945Z,992.2
2017-11-12T12:08:58.577Z,992.2
2017-11-12T12:10:01.144Z,992.2
2017-11-12T12:11:06.388Z,992.1
2017-11-12T12:12:09.726Z,992.1
2017-11-12T12:13:12.376Z,992.1
2017-11-12T12:14:15.648Z,992.1
2017-11-12T12:15:18.257Z,992
2017-11-12T12:16:22.402Z,992
2017-11-12T12:17:25.568Z,992
2017-11-12T12:18:29.088Z,992
2017-11-12T12:19:31.586Z,992
2017-11-12T12:20:34.004Z,992
2017-11-12T12:21:36.855Z,992
2017-11-12T12:22:40.704Z,991.9
2017-11-12T12:23:43.275Z,991.9
2017-11-12T12:24:47.376Z,991.9
2017-11-12T12:25:52.173Z,991.9
2017-11-12T12:26:55.845Z,991.9
2017-11-12T12:27:58.643Z,991.8
2017-11-12T12:29:01.510Z,991.9
2017-11-12T12:30:03.924Z,991.9
2017-11-12T12:31:06.633Z,992
2017-11-12T12:32:09.156Z,992
2017-11-12T12:33:12.890Z,992
2017-11-12T12:34:15.563Z,992
2017-11-12T12:35:18.016Z,992
2017-11-12T12:36:21.060Z,992
2017-11-12T12:37:23.813Z,992
2017-11-12T12:38:28.131Z,992
2017-11-12T12:39:31.620Z,992
2017-11-12T12:40:34.041Z,992
2017-11-12T12:41:37.528Z,992
2017-11-12T12:42:40.954Z,992
2017-11-12T12:43:43.854Z,992
2017-11-12T12:44:47.365Z,992
2017-11-12T12:45:50.733Z,992
2017-11-12T12:46:53.871Z,992
2017-11-12T12:47:56.992Z,992
2017-11-12T12:49:00.212Z,992
2017-11-12T12:50:02.811Z,992
2017-11-12T12:51:06.798Z,992
2017-11-12T12:52:10.644Z,991.9
2017-11-12T12:53:13.581Z,991.9
2017-11-12T12:54:16.774Z,991.9
2017-11-12T12:55:19.765Z,991.8
2017-11-12T12:56:22.480Z,991.8
2017-11-12T12:57:25.994Z,991.8
2017-11-12T12:58:29.716Z,991.8
2017-11-12T12:59:37.307Z,991.9
2017-11-12T13:00:43.512Z,991.8
2017-11-12T13:01:46.424Z,991.8
2017-11-12T13:02:53.606Z,991.8
2017-11-12T13:04:01.552Z,991.8
2017-11-12T13:05:07.205Z,991.8
2017-11-12T13:06:17.418Z,991.7
2017-11-12T13:07:27.087Z,991.8
2017-11-12T13:08:37.341Z,991.8
2017-11-12T13:09:46.991Z,991.8
2017-11-12T13:10:57.172Z,991.8
2017-11-12T13:12:07.509Z,991.8
2017-11-12T13:13:17.601Z,991.8
2017-11-12T13:14:28.012Z,991.8
2017-11-12T13:15:38.634Z,991.9
2017-11-12T13:16:48.696Z,991.9
2017-11-12T13:17:58.499Z,992
2017-11-12T13:19:07.595Z,992
2017-11-12T13:20:15.368Z,992
2017-11-12T13:21:19.885Z,992.1
2017-11-12T13:22:26.072Z,992.1
2017-11-12T13:23:33.410Z,992.2
2017-11-12T13:24:41.053Z,992.2
2017-11-12T13:25:47.737Z,992.2
2017-11-12T13:26:57.181Z,992.1
2017-11-12T13:28:05.198Z,992.1
2017-11-12T13:29:13.678Z,992.1
2017-11-12T13:30:21.461Z,992.1
2017-11-12T13:31:24.275Z,992
2017-11-12T13:32:29.737Z,992.1
2017-11-12T13:33:41.974Z,992.1
2017-11-12T13:34:53.228Z,992.2
2017-11-12T13:36:00.931Z,992.3
2017-11-12T13:37:04.749Z,992.3